sensor_id;sensor_type;location;lat;lon;timestamp;pressure;altitude;pressure_sealevel;temperature;humidity
11415;BME280;5763;42.714;23.244;2023-11-19T00:00:06;94519.31;;;5.14;70.38
11415;BME280;5763;42.714;23.244;2023-11-19T00:02:36;94528.91;;;5.18;70.31
11415;BME280;5763;42.714;23.244;2023-11-19T00:05:05;94544.00;;;5.19;70.38
11415;BME280;5763;42.714;23.244;2023-11-19T00:07:34;94542.97;;;4.94;70.63
11415;BME280;5763;42.714;23.244;2023-11-19T00:10:02;94541.22;;;5.03;70.29
11415;BME280;5763;42.714;23.244;2023-11-19T00:12:36;94524.47;;;5.08;70.24
11415;BME280;5763;42.714;23.244;2023-11-19T00:15:04;94534.81;;;5.13;70.49
11415;BME280;5763;42.714;23.244;2023-11-19T00:17:32;94530.25;;;5.10;70.34
11415;BME280;5763;42.714;23.244;2023-11-19T00:19:59;94528.66;;;5.13;69.89
11415;BME280;5763;42.714;23.244;2023-11-19T00:22:27;94525.94;;;5.13;70.67
11415;BME280;5763;42.714;23.244;2023-11-19T00:24:54;94535.53;;;5.17;70.42
11415;BME280;5763;42.714;23.244;2023-11-19T00:27:21;94532.06;;;4.97;70.56
11415;BME280;5763;42.714;23.244;2023-11-19T00:29:48;94526.50;;;5.04;70.83
11415;BME280;5763;42.714;23.244;2023-11-19T00:32:15;94523.66;;;4.92;71.14
11415;BME280;5763;42.714;23.244;2023-11-19T00:34:43;94543.59;;;5.01;71.02
11415;BME280;5763;42.714;23.244;2023-11-19T00:37:10;94532.13;;;4.94;70.95
11415;BME280;5763;42.714;23.244;2023-11-19T00:39:39;94539.28;;;4.84;71.10
11415;BME280;5763;42.714;23.244;2023-11-19T00:42:06;94543.75;;;4.94;71.34
11415;BME280;5763;42.714;23.244;2023-11-19T00:44:33;94544.91;;;4.93;71.22
11415;BME280;5763;42.714;23.244;2023-11-19T00:47:00;94540.97;;;4.98;71.38
11415;BME280;5763;42.714;23.244;2023-11-19T00:49:27;94542.06;;;5.00;71.22
11415;BME280;5763;42.714;23.244;2023-11-19T00:51:54;94539.47;;;4.93;71.51
11415;BME280;5763;42.714;23.244;2023-11-19T00:54:21;94543.66;;;4.98;71.77
11415;BME280;5763;42.714;23.244;2023-11-19T00:56:52;94536.91;;;4.86;71.73
11415;BME280;5763;42.714;23.244;2023-11-19T00:59:19;94545.34;;;4.92;71.61
11415;BME280;5763;42.714;23.244;2023-11-19T01:01:46;94529.91;;;4.89;71.63
11415;BME280;5763;42.714;23.244;2023-11-19T01:04:13;94531.44;;;4.90;71.83
11415;BME280;5763;42.714;23.244;2023-11-19T01:06:40;94546.47;;;4.94;71.55
11415;BME280;5763;42.714;23.244;2023-11-19T01:09:08;94540.13;;;4.81;71.09
11415;BME280;5763;42.714;23.244;2023-11-19T01:11:35;94557.19;;;4.78;71.51
11415;BME280;5763;42.714;23.244;2023-11-19T01:14:04;94551.78;;;4.78;71.64
11415;BME280;5763;42.714;23.244;2023-11-19T01:16:30;94549.53;;;4.73;71.58
11415;BME280;5763;42.714;23.244;2023-11-19T01:18:57;94554.28;;;4.69;71.63
11415;BME280;5763;42.714;23.244;2023-11-19T01:21:29;94566.09;;;4.79;71.93
11415;BME280;5763;42.714;23.244;2023-11-19T01:23:57;94566.75;;;4.86;71.54
11415;BME280;5763;42.714;23.244;2023-11-19T01:26:25;94564.50;;;4.81;71.47
11415;BME280;5763;42.714;23.244;2023-11-19T01:28:52;94560.97;;;4.84;70.81
11415;BME280;5763;42.714;23.244;2023-11-19T01:31:20;94569.75;;;4.92;70.74
11415;BME280;5763;42.714;23.244;2023-11-19T01:33:47;94567.06;;;4.88;69.98
11415;BME280;5763;42.714;23.244;2023-11-19T01:36:13;94569.44;;;4.86;70.00
11415;BME280;5763;42.714;23.244;2023-11-19T01:38:41;94582.66;;;4.84;69.78
11415;BME280;5763;42.714;23.244;2023-11-19T01:41:09;94564.91;;;4.80;70.26
11415;BME280;5763;42.714;23.244;2023-11-19T01:43:36;94580.44;;;4.79;70.04
11415;BME280;5763;42.714;23.244;2023-11-19T01:46:05;94580.91;;;4.74;69.95
11415;BME280;5763;42.714;23.244;2023-11-19T01:48:34;94592.66;;;4.87;69.43
11415;BME280;5763;42.714;23.244;2023-11-19T01:51:01;94586.81;;;4.89;68.60
11415;BME280;5763;42.714;23.244;2023-11-19T01:53:29;94583.47;;;4.81;68.96
11415;BME280;5763;42.714;23.244;2023-11-19T01:55:57;94592.31;;;4.85;68.71
11415;BME280;5763;42.714;23.244;2023-11-19T01:58:25;94587.94;;;4.91;68.33
11415;BME280;5763;42.714;23.244;2023-11-19T02:00:52;94587.88;;;4.95;68.51
11415;BME280;5763;42.714;23.244;2023-11-19T02:03:19;94578.63;;;4.92;67.72
11415;BME280;5763;42.714;23.244;2023-11-19T02:05:49;94583.22;;;4.95;68.22
11415;BME280;5763;42.714;23.244;2023-11-19T02:08:16;94573.28;;;4.89;67.94
11415;BME280;5763;42.714;23.244;2023-11-19T02:10:43;94576.06;;;4.85;67.90
11415;BME280;5763;42.714;23.244;2023-11-19T02:13:10;94561.66;;;4.88;68.06
11415;BME280;5763;42.714;23.244;2023-11-19T02:15:40;94566.81;;;4.83;68.30
11415;BME280;5763;42.714;23.244;2023-11-19T02:18:20;94577.72;;;4.79;68.14
11415;BME280;5763;42.714;23.244;2023-11-19T02:20:49;94563.09;;;4.73;68.51
11415;BME280;5763;42.714;23.244;2023-11-19T02:23:17;94573.94;;;4.73;68.48
11415;BME280;5763;42.714;23.244;2023-11-19T02:25:47;94579.78;;;4.72;68.68
11415;BME280;5763;42.714;23.244;2023-11-19T02:28:19;94576.38;;;4.68;68.87
11415;BME280;5763;42.714;23.244;2023-11-19T02:30:47;94569.78;;;4.69;68.54
11415;BME280;5763;42.714;23.244;2023-11-19T02:33:14;94558.22;;;4.65;69.28
11415;BME280;5763;42.714;23.244;2023-11-19T02:35:41;94546.06;;;4.53;69.85
11415;BME280;5763;42.714;23.244;2023-11-19T02:38:08;94539.09;;;4.52;69.77
11415;BME280;5763;42.714;23.244;2023-11-19T02:40:35;94548.06;;;4.49;69.75
11415;BME280;5763;42.714;23.244;2023-11-19T02:43:02;94521.63;;;4.34;70.04
11415;BME280;5763;42.714;23.244;2023-11-19T02:45:32;94552.31;;;4.50;70.10
11415;BME280;5763;42.714;23.244;2023-11-19T02:47:58;94576.22;;;4.55;70.27
11415;BME280;5763;42.714;23.244;2023-11-19T02:50:27;94577.09;;;4.49;70.13
11415;BME280;5763;42.714;23.244;2023-11-19T02:52:56;94549.84;;;4.36;69.59
11415;BME280;5763;42.714;23.244;2023-11-19T02:55:23;94562.81;;;4.48;69.57
11415;BME280;5763;42.714;23.244;2023-11-19T02:57:50;94572.38;;;4.53;69.22
11415;BME280;5763;42.714;23.244;2023-11-19T03:00:20;94552.44;;;4.43;69.26
11415;BME280;5763;42.714;23.244;2023-11-19T03:02:50;94564.66;;;4.51;69.40
11415;BME280;5763;42.714;23.244;2023-11-19T03:05:24;94568.91;;;4.52;69.49
11415;BME280;5763;42.714;23.244;2023-11-19T03:07:52;94553.97;;;4.44;69.46
11415;BME280;5763;42.714;23.244;2023-11-19T03:10:18;94572.69;;;4.35;70.15
11415;BME280;5763;42.714;23.244;2023-11-19T03:12:45;94581.88;;;4.41;70.03
11415;BME280;5763;42.714;23.244;2023-11-19T03:15:12;94589.69;;;4.59;69.72
11415;BME280;5763;42.714;23.244;2023-11-19T03:17:40;94587.69;;;4.63;69.36
11415;BME280;5763;42.714;23.244;2023-11-19T03:20:10;94588.94;;;4.58;69.85
11415;BME280;5763;42.714;23.244;2023-11-19T03:22:41;94591.28;;;4.56;69.39
11415;BME280;5763;42.714;23.244;2023-11-19T03:25:08;94589.22;;;4.64;69.67
11415;BME280;5763;42.714;23.244;2023-11-19T03:27:35;94589.09;;;4.71;68.95
11415;BME280;5763;42.714;23.244;2023-11-19T03:30:05;94588.75;;;4.69;68.76
11415;BME280;5763;42.714;23.244;2023-11-19T03:32:32;94593.75;;;4.70;68.54
11415;BME280;5763;42.714;23.244;2023-11-19T03:35:00;94599.03;;;4.77;68.47
11415;BME280;5763;42.714;23.244;2023-11-19T03:37:28;94608.50;;;4.69;68.57
11415;BME280;5763;42.714;23.244;2023-11-19T03:39:56;94597.41;;;4.60;69.01
11415;BME280;5763;42.714;23.244;2023-11-19T03:42:25;94598.41;;;4.70;68.72
11415;BME280;5763;42.714;23.244;2023-11-19T03:44:53;94613.59;;;4.87;68.40
11415;BME280;5763;42.714;23.244;2023-11-19T03:47:20;94626.31;;;4.90;67.80
11415;BME280;5763;42.714;23.244;2023-11-19T03:49:47;94623.38;;;4.81;67.83
11415;BME280;5763;42.714;23.244;2023-11-19T03:52:15;94638.50;;;4.78;68.34
11415;BME280;5763;42.714;23.244;2023-11-19T03:54:44;94645.81;;;4.81;68.17
11415;BME280;5763;42.714;23.244;2023-11-19T03:57:11;94626.97;;;4.74;68.61
11415;BME280;5763;42.714;23.244;2023-11-19T03:59:38;94615.78;;;4.72;68.58
11415;BME280;5763;42.714;23.244;2023-11-19T04:02:06;94623.69;;;4.63;68.43
11415;BME280;5763;42.714;23.244;2023-11-19T04:04:33;94626.34;;;4.67;68.97
11415;BME280;5763;42.714;23.244;2023-11-19T04:07:00;94618.44;;;4.53;68.73
11415;BME280;5763;42.714;23.244;2023-11-19T04:09:28;94632.56;;;4.64;68.82
11415;BME280;5763;42.714;23.244;2023-11-19T04:11:57;94630.84;;;4.73;68.85
11415;BME280;5763;42.714;23.244;2023-11-19T04:14:24;94644.53;;;4.66;68.77
11415;BME280;5763;42.714;23.244;2023-11-19T04:16:51;94653.31;;;4.74;68.80
11415;BME280;5763;42.714;23.244;2023-11-19T04:19:18;94627.56;;;4.62;69.02
11415;BME280;5763;42.714;23.244;2023-11-19T04:21:45;94614.16;;;4.55;69.05
11415;BME280;5763;42.714;23.244;2023-11-19T04:24:12;94638.78;;;4.64;69.38
11415;BME280;5763;42.714;23.244;2023-11-19T04:26:41;94628.75;;;4.61;68.99
11415;BME280;5763;42.714;23.244;2023-11-19T04:29:11;94629.78;;;4.67;68.97
11415;BME280;5763;42.714;23.244;2023-11-19T04:31:40;94643.25;;;4.74;69.02
11415;BME280;5763;42.714;23.244;2023-11-19T04:34:07;94640.16;;;4.72;68.77
11415;BME280;5763;42.714;23.244;2023-11-19T04:36:34;94644.00;;;4.75;68.52
11415;BME280;5763;42.714;23.244;2023-11-19T04:39:03;94640.88;;;4.76;68.63
11415;BME280;5763;42.714;23.244;2023-11-19T04:41:34;94638.41;;;4.62;68.38
11415;BME280;5763;42.714;23.244;2023-11-19T04:44:02;94649.34;;;4.78;67.97
11415;BME280;5763;42.714;23.244;2023-11-19T04:46:30;94642.53;;;4.70;68.32
11415;BME280;5763;42.714;23.244;2023-11-19T04:48:58;94637.84;;;4.71;68.43
11415;BME280;5763;42.714;23.244;2023-11-19T04:51:24;94649.53;;;4.68;68.20
11415;BME280;5763;42.714;23.244;2023-11-19T04:53:51;94646.44;;;4.69;68.25
11415;BME280;5763;42.714;23.244;2023-11-19T04:56:18;94634.88;;;4.65;68.00
11415;BME280;5763;42.714;23.244;2023-11-19T04:58:47;94641.06;;;4.66;67.81
11415;BME280;5763;42.714;23.244;2023-11-19T05:01:14;94649.72;;;4.57;67.98
11415;BME280;5763;42.714;23.244;2023-11-19T05:03:44;94653.97;;;4.58;68.11
11415;BME280;5763;42.714;23.244;2023-11-19T05:06:12;94675.22;;;4.60;68.46
11415;BME280;5763;42.714;23.244;2023-11-19T05:08:39;94677.50;;;4.61;68.42
11415;BME280;5763;42.714;23.244;2023-11-19T05:11:06;94680.94;;;4.65;67.81
11415;BME280;5763;42.714;23.244;2023-11-19T05:13:32;94680.59;;;4.63;68.09
11415;BME280;5763;42.714;23.244;2023-11-19T05:15:59;94664.44;;;4.56;67.89
11415;BME280;5763;42.714;23.244;2023-11-19T05:18:26;94668.97;;;4.63;68.13
11415;BME280;5763;42.714;23.244;2023-11-19T05:20:53;94667.66;;;4.71;67.61
11415;BME280;5763;42.714;23.244;2023-11-19T05:23:20;94677.28;;;4.75;67.55
11415;BME280;5763;42.714;23.244;2023-11-19T05:25:47;94671.16;;;4.71;67.22
11415;BME280;5763;42.714;23.244;2023-11-19T05:28:14;94665.47;;;4.66;67.37
11415;BME280;5763;42.714;23.244;2023-11-19T05:30:41;94668.56;;;4.64;67.40
11415;BME280;5763;42.714;23.244;2023-11-19T05:33:08;94669.38;;;4.61;67.70
11415;BME280;5763;42.714;23.244;2023-11-19T05:35:35;94676.72;;;4.64;67.75
11415;BME280;5763;42.714;23.244;2023-11-19T05:38:03;94668.09;;;4.69;67.61
11415;BME280;5763;42.714;23.244;2023-11-19T05:40:31;94667.38;;;4.65;67.53
11415;BME280;5763;42.714;23.244;2023-11-19T05:42:58;94671.47;;;4.77;67.55
11415;BME280;5763;42.714;23.244;2023-11-19T05:45:25;94689.25;;;4.78;66.93
11415;BME280;5763;42.714;23.244;2023-11-19T05:47:52;94679.59;;;4.77;67.29
11415;BME280;5763;42.714;23.244;2023-11-19T05:50:19;94689.53;;;4.83;66.99
11415;BME280;5763;42.714;23.244;2023-11-19T05:52:46;94693.59;;;4.95;67.10
11415;BME280;5763;42.714;23.244;2023-11-19T05:55:14;94689.44;;;4.90;66.91
11415;BME280;5763;42.714;23.244;2023-11-19T05:57:41;94696.69;;;4.97;66.91
11415;BME280;5763;42.714;23.244;2023-11-19T06:00:09;94696.00;;;4.66;67.40
11415;BME280;5763;42.714;23.244;2023-11-19T06:02:38;94707.56;;;4.70;67.61
11415;BME280;5763;42.714;23.244;2023-11-19T06:05:05;94718.47;;;4.67;67.89
11415;BME280;5763;42.714;23.244;2023-11-19T06:07:35;94708.50;;;4.60;68.27
11415;BME280;5763;42.714;23.244;2023-11-19T06:10:04;94730.91;;;4.64;68.43
11415;BME280;5763;42.714;23.244;2023-11-19T06:12:34;94698.13;;;4.55;68.42
11415;BME280;5763;42.714;23.244;2023-11-19T06:15:04;94704.72;;;4.54;68.80
11415;BME280;5763;42.714;23.244;2023-11-19T06:17:32;94703.09;;;4.60;68.37
11415;BME280;5763;42.714;23.244;2023-11-19T06:19:58;94713.66;;;4.51;68.36
11415;BME280;5763;42.714;23.244;2023-11-19T06:22:25;94702.38;;;4.56;68.21
11415;BME280;5763;42.714;23.244;2023-11-19T06:24:52;94717.41;;;4.61;68.15
11415;BME280;5763;42.714;23.244;2023-11-19T06:27:19;94712.66;;;4.42;68.62
11415;BME280;5763;42.714;23.244;2023-11-19T06:29:47;94744.59;;;4.54;68.87
11415;BME280;5763;42.714;23.244;2023-11-19T06:32:15;94717.91;;;4.52;68.50
11415;BME280;5763;42.714;23.244;2023-11-19T06:34:42;94718.34;;;4.51;68.38
11415;BME280;5763;42.714;23.244;2023-11-19T06:37:09;94727.38;;;4.41;68.58
11415;BME280;5763;42.714;23.244;2023-11-19T06:39:36;94727.38;;;4.41;68.62
11415;BME280;5763;42.714;23.244;2023-11-19T06:42:03;94735.88;;;4.43;68.34
11415;BME280;5763;42.714;23.244;2023-11-19T06:44:30;94738.25;;;4.37;68.69
11415;BME280;5763;42.714;23.244;2023-11-19T06:46:58;94733.16;;;4.43;68.05
11415;BME280;5763;42.714;23.244;2023-11-19T06:49:25;94742.81;;;4.44;67.63
11415;BME280;5763;42.714;23.244;2023-11-19T06:51:52;94723.50;;;4.42;67.38
11415;BME280;5763;42.714;23.244;2023-11-19T06:54:19;94735.81;;;4.46;67.78
11415;BME280;5763;42.714;23.244;2023-11-19T06:56:46;94729.19;;;4.51;67.63
11415;BME280;5763;42.714;23.244;2023-11-19T06:59:13;94736.53;;;4.50;67.62
11415;BME280;5763;42.714;23.244;2023-11-19T07:01:40;94733.34;;;4.55;67.42
11415;BME280;5763;42.714;23.244;2023-11-19T07:04:12;94728.53;;;4.66;66.97
11415;BME280;5763;42.714;23.244;2023-11-19T07:06:39;94724.75;;;4.60;66.58
11415;BME280;5763;42.714;23.244;2023-11-19T07:09:07;94734.63;;;4.47;67.00
11415;BME280;5763;42.714;23.244;2023-11-19T07:11:36;94738.88;;;4.48;67.34
11415;BME280;5763;42.714;23.244;2023-11-19T07:14:04;94730.75;;;4.48;66.97
11415;BME280;5763;42.714;23.244;2023-11-19T07:16:31;94732.81;;;4.41;67.00
11415;BME280;5763;42.714;23.244;2023-11-19T07:18:59;94735.81;;;4.46;66.76
11415;BME280;5763;42.714;23.244;2023-11-19T07:21:28;94716.56;;;4.41;67.04
11415;BME280;5763;42.714;23.244;2023-11-19T07:23:55;94730.03;;;4.44;66.86
11415;BME280;5763;42.714;23.244;2023-11-19T07:26:22;94732.69;;;4.48;66.85
11415;BME280;5763;42.714;23.244;2023-11-19T07:28:49;94731.97;;;4.44;67.15
11415;BME280;5763;42.714;23.244;2023-11-19T07:31:16;94749.34;;;4.46;67.20
11415;BME280;5763;42.714;23.244;2023-11-19T07:33:44;94752.06;;;4.46;66.71
11415;BME280;5763;42.714;23.244;2023-11-19T07:36:12;94754.41;;;4.44;66.35
11415;BME280;5763;42.714;23.244;2023-11-19T07:38:40;94737.91;;;4.35;66.21
11415;BME280;5763;42.714;23.244;2023-11-19T07:41:08;94758.31;;;4.43;66.76
11415;BME280;5763;42.714;23.244;2023-11-19T07:43:39;94763.47;;;4.61;66.02
11415;BME280;5763;42.714;23.244;2023-11-19T07:46:10;94754.09;;;4.65;66.08
11415;BME280;5763;42.714;23.244;2023-11-19T07:48:39;94750.59;;;4.68;65.69
11415;BME280;5763;42.714;23.244;2023-11-19T07:51:06;94761.25;;;4.79;64.93
11415;BME280;5763;42.714;23.244;2023-11-19T07:53:33;94763.97;;;4.79;64.75
11415;BME280;5763;42.714;23.244;2023-11-19T07:56:01;94766.28;;;4.80;65.14
11415;BME280;5763;42.714;23.244;2023-11-19T07:58:28;94775.66;;;4.72;65.07
11415;BME280;5763;42.714;23.244;2023-11-19T08:00:55;94768.78;;;4.68;65.37
11415;BME280;5763;42.714;23.244;2023-11-19T08:03:22;94770.19;;;4.76;64.97
11415;BME280;5763;42.714;23.244;2023-11-19T08:05:49;94774.25;;;4.64;65.15
11415;BME280;5763;42.714;23.244;2023-11-19T08:08:16;94784.44;;;4.57;65.48
11415;BME280;5763;42.714;23.244;2023-11-19T08:10:43;94789.38;;;4.62;65.67
11415;BME280;5763;42.714;23.244;2023-11-19T08:13:11;94788.84;;;4.44;66.33
11415;BME280;5763;42.714;23.244;2023-11-19T08:15:38;94795.56;;;4.36;66.55
11415;BME280;5763;42.714;23.244;2023-11-19T08:18:05;94795.28;;;4.27;66.93
11415;BME280;5763;42.714;23.244;2023-11-19T08:20:32;94778.59;;;4.32;66.61
11415;BME280;5763;42.714;23.244;2023-11-19T08:22:59;94788.56;;;4.38;66.76
11415;BME280;5763;42.714;23.244;2023-11-19T08:25:26;94789.38;;;4.35;66.49
11415;BME280;5763;42.714;23.244;2023-11-19T08:27:53;94791.78;;;4.26;66.57
11415;BME280;5763;42.714;23.244;2023-11-19T08:30:21;94779.44;;;4.25;66.98
11415;BME280;5763;42.714;23.244;2023-11-19T08:32:48;94778.00;;;4.17;66.75
11415;BME280;5763;42.714;23.244;2023-11-19T08:35:15;94796.69;;;4.38;66.34
11415;BME280;5763;42.714;23.244;2023-11-19T08:37:42;94801.38;;;4.34;66.26
11415;BME280;5763;42.714;23.244;2023-11-19T08:40:11;94810.69;;;4.33;66.30
11415;BME280;5763;42.714;23.244;2023-11-19T08:42:39;94805.28;;;4.30;66.53
11415;BME280;5763;42.714;23.244;2023-11-19T08:45:07;94804.81;;;4.38;66.65
11415;BME280;5763;42.714;23.244;2023-11-19T08:47:37;94809.41;;;4.41;66.30
11415;BME280;5763;42.714;23.244;2023-11-19T08:50:06;94813.63;;;4.42;65.74
11415;BME280;5763;42.714;23.244;2023-11-19T08:52:33;94794.31;;;4.40;64.95
11415;BME280;5763;42.714;23.244;2023-11-19T08:55:01;94806.28;;;4.43;65.58
11415;BME280;5763;42.714;23.244;2023-11-19T08:57:28;94811.59;;;4.50;65.28
11415;BME280;5763;42.714;23.244;2023-11-19T08:59:54;94802.81;;;4.42;65.33
11415;BME280;5763;42.714;23.244;2023-11-19T09:02:21;94805.38;;;4.53;65.90
11415;BME280;5763;42.714;23.244;2023-11-19T09:04:50;94798.66;;;4.64;65.86
11415;BME280;5763;42.714;23.244;2023-11-19T09:07:17;94802.47;;;4.67;65.31
11415;BME280;5763;42.714;23.244;2023-11-19T09:09:44;94800.31;;;4.81;63.87
11415;BME280;5763;42.714;23.244;2023-11-19T09:12:11;94794.28;;;4.70;64.26
11415;BME280;5763;42.714;23.244;2023-11-19T09:14:39;94786.50;;;4.72;64.24
11415;BME280;5763;42.714;23.244;2023-11-19T09:17:07;94777.84;;;4.84;64.20
11415;BME280;5763;42.714;23.244;2023-11-19T09:19:35;94789.41;;;4.85;64.08
11415;BME280;5763;42.714;23.244;2023-11-19T09:22:03;94798.34;;;4.85;63.53
11415;BME280;5763;42.714;23.244;2023-11-19T09:24:30;94793.84;;;4.98;63.74
11415;BME280;5763;42.714;23.244;2023-11-19T09:26:57;94802.25;;;5.07;63.67
11415;BME280;5763;42.714;23.244;2023-11-19T09:29:24;94823.22;;;5.03;63.38
11415;BME280;5763;42.714;23.244;2023-11-19T09:31:50;94796.69;;;4.91;63.82
11415;BME280;5763;42.714;23.244;2023-11-19T09:34:17;94787.44;;;4.89;63.80
11415;BME280;5763;42.714;23.244;2023-11-19T09:36:44;94787.28;;;4.73;64.09
11415;BME280;5763;42.714;23.244;2023-11-19T09:39:13;94735.09;;;4.42;63.69
11415;BME280;5763;42.714;23.244;2023-11-19T09:41:43;94772.56;;;4.74;63.13
11415;BME280;5763;42.714;23.244;2023-11-19T09:44:10;94760.84;;;4.80;63.15
11415;BME280;5763;42.714;23.244;2023-11-19T09:46:38;94759.25;;;4.83;63.72
11415;BME280;5763;42.714;23.244;2023-11-19T09:49:08;94750.81;;;4.77;62.97
11415;BME280;5763;42.714;23.244;2023-11-19T09:51:35;94736.91;;;4.75;63.36
11415;BME280;5763;42.714;23.244;2023-11-19T09:54:02;94724.97;;;4.73;63.81
11415;BME280;5763;42.714;23.244;2023-11-19T09:56:32;94738.69;;;4.85;63.77
11415;BME280;5763;42.714;23.244;2023-11-19T09:58:59;94738.31;;;4.83;64.07
11415;BME280;5763;42.714;23.244;2023-11-19T10:01:26;94724.78;;;4.83;64.21
11415;BME280;5763;42.714;23.244;2023-11-19T10:03:55;94739.88;;;4.84;64.53
11415;BME280;5763;42.714;23.244;2023-11-19T10:06:23;94739.41;;;4.89;63.70
11415;BME280;5763;42.714;23.244;2023-11-19T10:08:52;94725.22;;;4.82;63.96
11415;BME280;5763;42.714;23.244;2023-11-19T10:11:19;94719.72;;;4.85;63.90
11415;BME280;5763;42.714;23.244;2023-11-19T10:13:47;94736.22;;;4.94;64.21
11415;BME280;5763;42.714;23.244;2023-11-19T10:16:14;94738.81;;;5.01;63.52
11415;BME280;5763;42.714;23.244;2023-11-19T10:18:44;94741.34;;;4.89;64.27
11415;BME280;5763;42.714;23.244;2023-11-19T10:21:12;94746.06;;;4.85;64.55
11415;BME280;5763;42.714;23.244;2023-11-19T10:23:49;94736.56;;;4.96;64.00
11415;BME280;5763;42.714;23.244;2023-11-19T10:26:17;94727.72;;;4.92;64.05
11415;BME280;5763;42.714;23.244;2023-11-19T10:28:47;94720.56;;;5.05;63.85
11415;BME280;5763;42.714;23.244;2023-11-19T10:31:14;94719.13;;;5.20;63.25
11415;BME280;5763;42.714;23.244;2023-11-19T10:33:41;94711.91;;;5.33;62.68
11415;BME280;5763;42.714;23.244;2023-11-19T10:36:10;94705.09;;;5.45;62.45
11415;BME280;5763;42.714;23.244;2023-11-19T10:38:38;94697.19;;;5.54;61.88
11415;BME280;5763;42.714;23.244;2023-11-19T10:41:05;94712.31;;;5.32;61.66
11415;BME280;5763;42.714;23.244;2023-11-19T10:43:42;94722.91;;;5.46;62.09
11415;BME280;5763;42.714;23.244;2023-11-19T10:46:12;94720.25;;;5.42;61.57
11415;BME280;5763;42.714;23.244;2023-11-19T10:48:39;94722.16;;;5.45;60.96
11415;BME280;5763;42.714;23.244;2023-11-19T10:51:07;94737.97;;;5.50;61.38
11415;BME280;5763;42.714;23.244;2023-11-19T10:53:36;94725.22;;;5.47;60.97
11415;BME280;5763;42.714;23.244;2023-11-19T10:56:06;94720.59;;;5.44;60.85
11415;BME280;5763;42.714;23.244;2023-11-19T10:58:36;94726.97;;;5.57;60.87
11415;BME280;5763;42.714;23.244;2023-11-19T11:01:08;94716.44;;;5.59;61.39
11415;BME280;5763;42.714;23.244;2023-11-19T11:03:39;94709.38;;;5.85;60.61
11415;BME280;5763;42.714;23.244;2023-11-19T11:06:07;94694.53;;;5.89;59.59
11415;BME280;5763;42.714;23.244;2023-11-19T11:08:36;94685.75;;;6.01;59.65
11415;BME280;5763;42.714;23.244;2023-11-19T11:11:05;94684.84;;;6.08;59.62
11415;BME280;5763;42.714;23.244;2023-11-19T11:13:33;94688.91;;;6.00;58.87
11415;BME280;5763;42.714;23.244;2023-11-19T11:16:00;94683.41;;;6.03;58.66
11415;BME280;5763;42.714;23.244;2023-11-19T11:18:29;94678.19;;;6.28;58.25
11415;BME280;5763;42.714;23.244;2023-11-19T11:21:01;94686.53;;;6.37;57.81
11415;BME280;5763;42.714;23.244;2023-11-19T11:23:52;94684.31;;;6.48;57.34
11415;BME280;5763;42.714;23.244;2023-11-19T11:26:50;94678.00;;;6.35;56.21
11415;BME280;5763;42.714;23.244;2023-11-19T11:29:24;94679.41;;;6.43;56.76
11415;BME280;5763;42.714;23.244;2023-11-19T11:32:00;94677.91;;;7.76;54.75
11415;BME280;5763;42.714;23.244;2023-11-19T11:34:45;94663.34;;;9.54;49.19
11415;BME280;5763;42.714;23.244;2023-11-19T11:37:18;94660.63;;;10.88;44.84
11415;BME280;5763;42.714;23.244;2023-11-19T11:39:46;94653.69;;;12.04;42.09
11415;BME280;5763;42.714;23.244;2023-11-19T11:42:34;94644.78;;;12.78;38.61
11415;BME280;5763;42.714;23.244;2023-11-19T11:45:03;94622.16;;;13.77;36.57
11415;BME280;5763;42.714;23.244;2023-11-19T11:48:04;94596.53;;;15.07;34.17
11415;BME280;5763;42.714;23.244;2023-11-19T11:50:35;94624.00;;;16.21;31.01
11415;BME280;5763;42.714;23.244;2023-11-19T11:53:17;94624.31;;;16.54;29.93
11415;BME280;5763;42.714;23.244;2023-11-19T11:55:55;94622.81;;;17.68;28.52
11415;BME280;5763;42.714;23.244;2023-11-19T11:58:30;94618.25;;;19.18;26.59
11415;BME280;5763;42.714;23.244;2023-11-19T12:00:58;94628.44;;;20.35;24.65
11415;BME280;5763;42.714;23.244;2023-11-19T12:03:28;94626.66;;;21.07;23.58
11415;BME280;5763;42.714;23.244;2023-11-19T12:05:57;94616.19;;;21.67;23.10
11415;BME280;5763;42.714;23.244;2023-11-19T12:08:27;94611.75;;;22.75;21.44
11415;BME280;5763;42.714;23.244;2023-11-19T12:10:56;94604.19;;;22.57;21.53
11415;BME280;5763;42.714;23.244;2023-11-19T12:13:25;94609.53;;;22.55;21.13
11415;BME280;5763;42.714;23.244;2023-11-19T12:16:08;94607.19;;;21.55;21.85
11415;BME280;5763;42.714;23.244;2023-11-19T12:18:35;94604.03;;;22.12;21.80
11415;BME280;5763;42.714;23.244;2023-11-19T12:21:02;94608.13;;;21.39;22.47
11415;BME280;5763;42.714;23.244;2023-11-19T12:23:32;94588.31;;;20.65;23.48
11415;BME280;5763;42.714;23.244;2023-11-19T12:25:59;94588.50;;;20.73;23.77
11415;BME280;5763;42.714;23.244;2023-11-19T12:28:26;94597.16;;;20.99;23.81
11415;BME280;5763;42.714;23.244;2023-11-19T12:31:07;94589.31;;;21.75;22.58
11415;BME280;5763;42.714;23.244;2023-11-19T12:33:35;94581.91;;;21.29;22.81
11415;BME280;5763;42.714;23.244;2023-11-19T12:36:03;94590.88;;;20.58;23.70
11415;BME280;5763;42.714;23.244;2023-11-19T12:38:33;94580.91;;;20.73;23.94
11415;BME280;5763;42.714;23.244;2023-11-19T12:41:03;94577.06;;;20.12;23.93
11415;BME280;5763;42.714;23.244;2023-11-19T12:43:30;94574.38;;;19.11;25.27
11415;BME280;5763;42.714;23.244;2023-11-19T12:45:57;94571.31;;;18.09;26.61
11415;BME280;5763;42.714;23.244;2023-11-19T12:48:24;94581.34;;;17.26;27.01
11415;BME280;5763;42.714;23.244;2023-11-19T12:50:51;94567.88;;;16.61;28.24
11415;BME280;5763;42.714;23.244;2023-11-19T12:53:19;94570.78;;;15.70;29.99
11415;BME280;5763;42.714;23.244;2023-11-19T12:55:47;94579.06;;;14.75;31.49
11415;BME280;5763;42.714;23.244;2023-11-19T12:58:28;94573.81;;;14.14;32.65
11415;BME280;5763;42.714;23.244;2023-11-19T13:00:59;94571.72;;;13.65;33.81
11415;BME280;5763;42.714;23.244;2023-11-19T13:03:30;94567.00;;;13.04;35.44
11415;BME280;5763;42.714;23.244;2023-11-19T13:06:02;94553.28;;;12.72;36.06
11415;BME280;5763;42.714;23.244;2023-11-19T13:08:35;94565.41;;;12.56;36.59
11415;BME280;5763;42.714;23.244;2023-11-19T13:11:05;94562.03;;;12.61;36.91
11415;BME280;5763;42.714;23.244;2023-11-19T13:13:59;94556.41;;;12.32;37.14
11415;BME280;5763;42.714;23.244;2023-11-19T13:16:27;94563.50;;;12.06;37.06